Time;durP1;ratioP1;P1;durP2;ratioP2;P2;SDS_P1;SDS_P2;PMS_P1;PMS_P2;Temp;Humidity;BMP_temperature;BMP_pressure;BME280_temperature;BME280_humidity;BME280_pressure;Samples;Min_cycle;Max_cycle;Signal;HPM_P1;HPM_P2
2022/07/08 00:00:30;;;;;;;12.90;2.40;;;;;;;15.87;91.94;101638.22;5168072;28;20026;-74
2022/07/08 00:03:01;;;;;;;14.00;2.67;;;;;;;15.84;93.21;101638.34;5171488;28;20032;-74
2022/07/08 00:05:32;;;;;;;16.95;2.83;;;;;;;15.77;93.21;101636.91;5170601;28;20034;-74
2022/07/08 00:08:02;;;;;;;15.55;2.60;;;;;;;15.80;93.42;101646.44;5170818;28;20399;-74
2022/07/08 00:10:33;;;;;;;16.48;2.97;;;;;;;15.70;94.21;101638.03;5167080;28;20040;-74
2022/07/08 00:13:03;;;;;;;14.30;2.40;;;;;;;15.71;93.02;101642.38;5153779;28;20508;-74
2022/07/08 00:15:33;;;;;;;12.88;2.47;;;;;;;15.64;94.23;101638.28;5168788;28;20024;-74
2022/07/08 00:18:04;;;;;;;17.58;2.78;;;;;;;15.64;93.84;101638.28;5168019;28;20030;-74
2022/07/08 00:20:34;;;;;;;18.00;2.42;;;;;;;15.69;94.34;101646.88;5170119;28;20018;-74
2022/07/08 00:23:05;;;;;;;12.63;2.60;;;;;;;15.71;93.70;101650.28;5171247;28;20452;-74
2022/07/08 00:25:35;;;;;;;16.05;2.47;;;;;;;15.55;94.25;101649.19;5170082;28;20059;-75
2022/07/08 00:28:05;;;;;;;17.73;2.70;;;;;;;15.59;94.52;101645.53;5170501;28;20325;-74
2022/07/08 00:30:36;;;;;;;15.25;2.80;;;;;;;15.60;93.99;101646.38;5165039;28;20033;-73
2022/07/08 00:33:06;;;;;;;15.38;2.60;;;;;;;15.68;94.85;101647.78;5170883;28;20388;-74
2022/07/08 00:35:36;;;;;;;18.50;2.85;;;;;;;15.70;93.74;101650.38;5171023;28;20026;-74
2022/07/08 00:38:07;;;;;;;15.90;2.72;;;;;;;15.70;94.19;101656.50;5169680;28;20033;-71
2022/07/08 00:40:37;;;;;;;17.60;2.80;;;;;;;15.68;94.16;101658.34;5168463;28;20030;-74
2022/07/08 00:43:23;;;;;;;24.25;3.35;;;;;;;15.66;94.19;101649.63;5168382;28;20057;-73
2022/07/08 00:45:54;;;;;;;24.90;3.00;;;;;;;15.62;94.48;101655.94;5165779;28;20041;-74
2022/07/08 00:48:24;;;;;;;12.77;2.95;;;;;;;15.45;94.54;101660.13;5171476;28;20029;-74
2022/07/08 00:50:55;;;;;;;17.83;2.78;;;;;;;15.52;95.04;101661.63;5169203;28;20525;-74
2022/07/08 00:53:28;;;;;;;14.00;2.55;;;;;;;15.54;94.74;101660.63;5169725;28;20317;-74
2022/07/08 00:55:59;;;;;;;15.52;2.78;;;;;;;15.48;95.07;101658.25;5169063;28;20565;-74
2022/07/08 00:58:34;;;;;;;13.65;2.55;;;;;;;15.36;95.33;101661.34;5169006;28;20152;-74
2022/07/08 01:01:04;;;;;;;13.88;2.35;;;;;;;15.46;94.83;101661.84;5167962;28;20114;-74
2022/07/08 01:03:35;;;;;;;16.45;2.70;;;;;;;15.54;95.08;101658.00;5171111;28;20126;-74
2022/07/08 01:06:06;;;;;;;19.10;2.97;;;;;;;15.50;94.75;101661.69;5169748;28;20114;-73
2022/07/08 01:08:36;;;;;;;18.58;2.75;;;;;;;15.51;95.50;101657.28;5169272;28;20033;-74
2022/07/08 01:11:08;;;;;;;15.15;2.60;;;;;;;15.46;94.52;101662.72;5167227;28;20457;-74
2022/07/08 01:13:39;;;;;;;20.48;3.92;;;;;;;15.45;95.79;101668.03;5167317;28;20096;-75
2022/07/08 01:16:09;;;;;;;23.45;2.97;;;;;;;15.49;94.69;101667.88;5168992;28;20045;-74
2022/07/08 01:18:41;;;;;;;16.23;2.67;;;;;;;15.37;95.41;101672.75;5168449;28;20480;-74
2022/07/08 01:21:11;;;;;;;18.38;2.85;;;;;;;15.55;94.65;101677.31;5170788;28;20045;-73
2022/07/08 01:23:41;;;;;;;22.15;2.67;;;;;;;15.52;94.13;101688.81;5168546;28;20023;-74
2022/07/08 01:26:13;;;;;;;17.70;2.58;;;;;;;15.46;93.95;101678.53;5170444;28;20037;-73
2022/07/08 01:28:44;;;;;;;11.55;2.33;;;;;;;15.43;95.11;101688.31;5166561;28;20042;-74
2022/07/08 01:31:14;;;;;;;18.77;2.50;;;;;;;15.52;94.08;101683.56;5167862;28;20028;-74
2022/07/08 01:33:44;;;;;;;16.25;2.70;;;;;;;15.47;94.60;101685.53;5171182;28;20041;-74
2022/07/08 01:36:15;;;;;;;17.83;2.60;;;;;;;15.50;94.27;101680.13;5168094;28;20538;-74
2022/07/08 01:38:45;;;;;;;18.20;2.78;;;;;;;15.52;94.71;101691.47;5173363;28;20088;-74
2022/07/08 01:41:15;;;;;;;20.23;2.63;;;;;;;15.50;93.97;101693.31;5171355;28;20113;-73
2022/07/08 01:43:46;;;;;;;17.10;2.30;;;;;;;15.55;94.48;101693.97;5171708;28;20034;-74
2022/07/08 01:46:16;;;;;;;19.55;2.53;;;;;;;15.43;93.76;101686.56;5175242;28;20026;-74
2022/07/08 01:48:46;;;;;;;11.93;2.63;;;;;;;15.40;93.85;101694.56;5171787;28;20026;-74
2022/07/08 01:51:17;;;;;;;14.98;2.50;;;;;;;15.53;93.23;101690.53;5175467;28;20538;-74
2022/07/08 01:53:47;;;;;;;18.30;2.65;;;;;;;15.41;93.42;101696.31;5171878;28;20038;-74
2022/07/08 01:56:17;;;;;;;17.48;3.30;;;;;;;15.54;93.64;101697.53;5175082;28;20107;-73
2022/07/08 01:58:48;;;;;;;13.98;2.25;;;;;;;15.49;93.50;101702.13;5170105;28;20080;-74
2022/07/08 02:01:18;;;;;;;13.85;2.30;;;;;;;15.55;93.33;101693.13;5171645;28;20599;-74
2022/07/08 02:03:48;;;;;;;12.18;2.28;;;;;;;15.46;93.09;101693.47;5169055;28;20081;-74
2022/07/08 02:06:19;;;;;;;12.88;2.40;;;;;;;15.41;93.23;101698.06;5167502;28;20484;-74
2022/07/08 02:08:50;;;;;;;16.58;2.40;;;;;;;15.45;93.12;101697.91;5170065;28;20279;-74
2022/07/08 02:14:09;;;;;;;11.55;2.50;;;;;;;15.45;92.98;101699.66;5171143;28;20042;-74
2022/07/08 02:16:39;;;;;;;10.98;2.00;;;;;;;15.41;93.22;101696.31;5173480;28;20030;-74
2022/07/08 02:19:09;;;;;;;13.40;2.53;;;;;;;15.47;93.77;101698.69;5172464;28;20495;-74
2022/07/08 02:21:40;;;;;;;14.40;2.17;;;;;;;15.39;93.61;101695.47;5172673;28;20053;-74
2022/07/08 02:24:10;;;;;;;12.68;2.15;;;;;;;15.46;93.18;101704.00;5169415;28;20065;-72
2022/07/08 02:26:40;;;;;;;16.23;2.38;;;;;;;15.50;93.38;101701.22;5165403;28;20022;-74
2022/07/08 02:29:10;;;;;;;18.77;2.33;;;;;;;15.40;92.96;101709.53;5163725;28;20107;-72
2022/07/08 02:31:41;;;;;;;15.80;2.50;;;;;;;15.40;93.43;101710.34;5168195;28;20117;-74
2022/07/08 02:34:11;;;;;;;12.52;2.15;;;;;;;15.35;93.55;101709.69;5173479;28;20561;-74
2022/07/08 02:36:41;;;;;;;16.73;2.42;;;;;;;15.41;93.34;101711.22;5171399;28;20018;-74
2022/07/08 02:39:15;;;;;;;11.00;2.00;;;;;;;15.42;93.18;101712.94;5173617;28;20189;-74
2022/07/08 02:41:45;;;;;;;12.13;2.30;;;;;;;15.36;93.48;101711.41;5167714;28;20404;-74
2022/07/08 02:44:16;;;;;;;13.00;2.95;;;;;;;15.27;93.38;101717.00;5174231;28;20022;-74
2022/07/08 02:46:47;;;;;;;12.88;2.10;;;;;;;15.37;92.72;101715.75;5170603;28;20037;-74
2022/07/08 02:49:17;;;;;;;13.68;2.55;;;;;;;15.21;93.76;101714.56;5173650;28;20479;-74
2022/07/08 02:51:47;;;;;;;13.27;2.30;;;;;;;15.26;93.65;101723.16;5170493;28;20038;-74
2022/07/08 02:54:18;;;;;;;9.73;2.35;;;;;;;15.21;93.77;101719.81;5170303;28;20026;-74
2022/07/08 02:56:48;;;;;;;13.48;2.30;;;;;;;15.34;93.17;101718.50;5174060;28;20034;-74
2022/07/08 02:59:18;;;;;;;12.30;2.38;;;;;;;15.27;92.82;101719.63;5170088;28;20022;-74
2022/07/08 03:01:49;;;;;;;12.43;2.55;;;;;;;15.20;92.53;101728.63;5165295;28;20169;-74
2022/07/08 03:04:19;;;;;;;19.15;2.92;;;;;;;15.23;92.83;101733.81;5170498;28;20032;-74
2022/07/08 03:06:49;;;;;;;16.63;3.00;;;;;;;15.28;92.83;101729.25;5172301;28;20112;-74
2022/07/08 03:09:20;;;;;;;12.75;2.38;;;;;;;15.34;92.31;101723.78;5171938;28;20037;-74
2022/07/08 03:11:50;;;;;;;13.98;2.67;;;;;;;15.36;91.92;101735.09;5168008;28;20059;-73
2022/07/08 03:14:20;;;;;;;14.32;2.55;;;;;;;15.27;92.97;101738.06;5173207;28;20034;-74
2022/07/08 03:16:51;;;;;;;15.38;2.45;;;;;;;15.32;91.80;101736.16;5169123;28;20026;-74
2022/07/08 03:19:21;;;;;;;16.88;2.67;;;;;;;15.32;92.86;101727.41;5173497;28;20034;-74
2022/07/08 03:21:51;;;;;;;18.30;2.40;;;;;;;15.32;91.94;101736.16;5170323;28;20033;-74
2022/07/08 03:24:21;;;;;;;13.95;2.22;;;;;;;15.28;91.97;101733.63;5173667;28;20014;-74
2022/07/08 03:26:52;;;;;;;11.27;2.53;;;;;;;15.26;92.82;101738.97;5170000;28;20038;-74
2022/07/08 03:29:22;;;;;;;13.88;2.50;;;;;;;15.30;92.14;101732.72;5173008;28;20618;-74
2022/07/08 03:31:53;;;;;;;14.10;2.63;;;;;;;15.25;92.47;101737.25;5170051;28;20030;-73
2022/07/08 03:34:23;;;;;;;14.60;2.17;;;;;;;15.29;91.71;101738.91;5165868;28;20100;-74
2022/07/08 03:36:53;;;;;;;13.80;2.05;;;;;;;15.22;92.69;101747.88;5168929;28;20037;-74
2022/07/08 03:39:24;;;;;;;14.63;2.20;;;;;;;15.16;93.11;101736.72;5170212;28;20025;-74
2022/07/08 03:41:54;;;;;;;11.25;2.15;;;;;;;15.18;92.11;101750.69;5168640;28;20033;-74
2022/07/08 03:44:24;;;;;;;15.93;2.42;;;;;;;15.12;93.00;101750.91;5172633;28;20076;-74
2022/07/08 03:46:55;;;;;;;15.15;2.35;;;;;;;15.13;92.35;101753.50;5169227;28;20049;-75
2022/07/08 03:49:25;;;;;;;15.80;2.50;;;;;;;15.20;91.70;101748.88;5171522;28;20022;-74
2022/07/08 03:51:55;;;;;;;14.65;1.80;;;;;;;15.25;92.59;101762.72;5167709;28;20030;-75
2022/07/08 03:54:26;;;;;;;13.93;2.28;;;;;;;15.18;91.64;101756.81;5172095;28;20035;-74
2022/07/08 03:56:57;;;;;;;10.25;1.85;;;;;;;15.34;92.51;101758.03;5169498;28;20305;-75
2022/07/08 03:59:27;;;;;;;9.73;2.20;;;;;;;15.22;92.38;101761.06;5171293;28;20034;-74
2022/07/08 04:01:57;;;;;;;16.48;2.40;;;;;;;15.23;92.81;101769.81;5170088;28;20253;-75
2022/07/08 04:04:28;;;;;;;12.27;2.13;;;;;;;15.31;92.44;101768.69;5164937;28;20026;-74
2022/07/08 04:06:58;;;;;;;11.32;2.17;;;;;;;15.35;92.53;101772.06;5168356;28;20483;-75
2022/07/08 04:09:28;;;;;;;15.27;2.30;;;;;;;15.32;92.83;101780.94;5168505;28;20037;-74
2022/07/08 04:11:59;;;;;;;11.15;2.60;;;;;;;15.36;93.28;101779.91;5167520;28;20022;-74
2022/07/08 04:14:29;;;;;;;14.75;2.53;;;;;;;15.41;92.67;101785.88;5167715;28;20148;-74
2022/07/08 04:16:59;;;;;;;17.50;2.42;;;;;;;15.24;92.34;101787.34;5168016;28;20033;-75
2022/07/08 04:19:30;;;;;;;14.15;2.65;;;;;;;15.34;92.98;101787.00;5171141;28;20439;-74
2022/07/08 04:22:00;;;;;;;14.50;2.03;;;;;;;15.49;93.14;101789.09;5167348;28;20023;-75
2022/07/08 04:24:30;;;;;;;13.82;2.47;;;;;;;15.47;92.75;101792.69;5169695;28;20029;-74
2022/07/08 04:27:01;;;;;;;12.00;2.10;;;;;;;15.36;93.17;101800.97;5169915;28;20472;-74
2022/07/08 04:29:31;;;;;;;14.57;2.08;;;;;;;15.45;92.88;101803.28;5170883;28;20052;-75
2022/07/08 04:32:01;;;;;;;17.77;2.80;;;;;;;15.30;92.82;101803.84;5170420;28;20113;-74
2022/07/08 04:34:32;;;;;;;13.43;2.40;;;;;;;15.47;92.91;101812.00;5170040;28;20021;-74
2022/07/08 04:37:02;;;;;;;13.35;2.38;;;;;;;15.25;92.62;101807.50;5169957;28;20041;-74
2022/07/08 04:39:32;;;;;;;16.13;2.85;;;;;;;15.42;91.91;101810.44;5167781;28;20501;-74
2022/07/08 04:42:03;;;;;;;14.05;2.42;;;;;;;15.45;92.56;101816.47;5167150;28;20022;-75
2022/07/08 04:44:33;;;;;;;14.05;2.22;;;;;;;15.53;91.08;101824.94;5163943;28;20025;-74
2022/07/08 04:47:04;;;;;;;19.27;2.53;;;;;;;15.41;90.51;101817.50;5168404;28;20038;-74
2022/07/08 04:49:34;;;;;;;12.05;2.08;;;;;;;15.46;90.85;101828.72;5170360;28;20399;-74
2022/07/08 04:52:07;;;;;;;10.93;2.20;;;;;;;15.44;90.06;101827.94;5170416;28;20041;-74
2022/07/08 04:54:38;;;;;;;12.70;2.20;;;;;;;15.46;90.54;101828.72;5169426;28;20395;-74
2022/07/08 04:57:09;;;;;;;13.30;2.00;;;;;;;15.42;89.28;101829.75;5169946;28;20037;-74
2022/07/08 04:59:39;;;;;;;9.45;1.63;;;;;;;15.57;89.08;101825.72;5168146;28;20415;-74
2022/07/08 05:02:09;;;;;;;13.40;2.47;;;;;;;15.60;88.53;101823.81;5168008;28;20029;-74
2022/07/08 05:04:41;;;;;;;8.05;1.73;;;;;;;15.64;88.60;101829.81;5168410;28;20030;-74
2022/07/08 05:07:11;;;;;;;14.10;2.08;;;;;;;15.53;87.83;101822.31;5170148;28;20546;-74
2022/07/08 05:09:41;;;;;;;12.60;1.80;;;;;;;15.65;87.62;101818.38;5166458;28;20033;-73
2022/07/08 05:12:12;;;;;;;9.13;1.73;;;;;;;15.73;87.38;101824.22;5167597;28;20032;-74
2022/07/08 05:14:42;;;;;;;9.32;1.80;;;;;;;15.77;87.68;101820.56;5162274;28;20069;-74
2022/07/08 05:17:12;;;;;;;15.48;1.88;;;;;;;15.79;87.28;101824.00;5166975;28;20069;-74
2022/07/08 05:19:42;;;;;;;14.00;2.20;;;;;;;15.92;86.82;101826.16;5169638;28;20052;-74
2022/07/08 05:22:13;;;;;;;11.63;1.92;;;;;;;15.88;86.48;101831.59;5167288;28;20034;-75
2022/07/08 05:24:43;;;;;;;11.55;2.40;;;;;;;15.81;87.45;101827.44;5171209;28;20062;-74
2022/07/08 05:27:13;;;;;;;12.50;2.30;;;;;;;15.79;88.08;101832.78;5168693;28;20041;-74
2022/07/08 05:29:44;;;;;;;11.68;2.90;;;;;;;15.93;86.99;101833.13;5170696;28;20037;-73
2022/07/08 05:32:14;;;;;;;9.65;1.80;;;;;;;15.96;86.85;101832.13;5167460;28;20113;-75
2022/07/08 05:34:44;;;;;;;9.07;1.80;;;;;;;15.94;86.77;101840.13;5168503;28;20384;-74
2022/07/08 05:37:15;;;;;;;8.63;1.67;;;;;;;15.91;87.34;101840.22;5167731;28;20272;-74
2022/07/08 05:39:45;;;;;;;10.80;1.95;;;;;;;15.86;87.21;101836.91;5169196;28;20522;-75
2022/07/08 05:42:15;;;;;;;10.40;1.85;;;;;;;15.91;87.29;101845.50;5168438;28;20038;-74
2022/07/08 05:44:46;;;;;;;12.02;1.73;;;;;;;15.84;87.15;101849.28;5161775;28;20148;-74
2022/07/08 05:47:16;;;;;;;11.38;1.75;;;;;;;15.85;87.69;101855.44;5168786;28;20045;-75
2022/07/08 05:49:47;;;;;;;8.55;1.98;;;;;;;16.10;87.67;101851.81;5168955;28;20032;-74
2022/07/08 05:52:18;;;;;;;14.23;2.47;;;;;;;16.14;87.31;101848.16;5166869;28;20030;-74
2022/07/08 05:54:48;;;;;;;14.38;2.20;;;;;;;16.23;86.40;101846.94;5170156;28;20034;-74
2022/07/08 05:57:19;;;;;;;11.82;2.28;;;;;;;16.03;86.06;101849.47;5162472;28;20030;-74
2022/07/08 05:59:52;;;;;;;9.55;1.92;;;;;;;16.25;86.96;101853.84;5171438;28;20487;-74
2022/07/08 06:02:22;;;;;;;11.75;2.38;;;;;;;16.19;86.86;101856.72;5167252;28;20073;-74
2022/07/08 06:04:52;;;;;;;9.30;2.08;;;;;;;16.30;87.07;101859.84;5163437;28;20376;-74
2022/07/08 06:07:23;;;;;;;9.07;1.80;;;;;;;16.12;85.99;101850.00;5165138;28;20320;-74
2022/07/08 06:09:53;;;;;;;10.95;2.10;;;;;;;16.06;86.60;101865.19;5169358;28;20109;-74
2022/07/08 06:12:23;;;;;;;12.68;2.00;;;;;;;16.13;87.87;101870.16;5168400;28;20018;-74
2022/07/08 06:14:54;;;;;;;11.00;1.92;;;;;;;16.16;89.00;101872.69;5162209;28;20037;-74
2022/07/08 06:17:24;;;;;;;17.00;2.38;;;;;;;16.26;89.87;101879.34;5168596;28;20037;-74
2022/07/08 06:19:54;;;;;;;12.93;2.50;;;;;;;16.33;89.82;101879.94;5167823;28;20091;-74
2022/07/08 06:22:25;;;;;;;12.88;2.33;;;;;;;16.41;89.23;101877.94;5170718;28;20483;-74
2022/07/08 06:24:55;;;;;;;10.35;2.10;;;;;;;16.49;89.29;101881.09;5171859;28;20026;-74
2022/07/08 06:27:26;;;;;;;9.38;1.95;;;;;;;16.55;90.00;101879.09;5172950;28;20084;-74
2022/07/08 06:29:56;;;;;;;7.65;1.90;;;;;;;16.56;88.54;101878.19;5170617;28;20030;-74
2022/07/08 06:32:26;;;;;;;8.70;1.63;;;;;;;16.52;88.56;101891.56;5174392;28;20022;-73
2022/07/08 06:34:57;;;;;;;11.65;2.28;;;;;;;16.40;89.94;101895.53;5171562;28;20061;-74
2022/07/08 06:37:27;;;;;;;12.93;1.98;;;;;;;16.37;88.93;101908.00;5173246;28;20096;-73
2022/07/08 06:39:58;;;;;;;16.45;2.13;;;;;;;16.26;89.27;101892.53;5169124;28;20549;-74
2022/07/08 06:42:28;;;;;;;11.05;2.05;;;;;;;16.49;88.69;101902.22;5167467;28;20030;-74
2022/07/08 06:44:59;;;;;;;11.82;1.83;;;;;;;16.54;89.13;101900.28;5166705;28;20034;-74
2022/07/08 06:47:29;;;;;;;10.65;1.77;;;;;;;16.51;85.71;101901.25;5171107;28;20453;-74
2022/07/08 06:49:59;;;;;;;8.25;1.65;;;;;;;16.63;85.55;101895.50;5170950;28;20030;-74
2022/07/08 06:52:30;;;;;;;8.68;1.60;;;;;;;16.56;85.04;101894.00;5170971;28;20030;-74
2022/07/08 06:55:00;;;;;;;9.18;1.40;;;;;;;16.59;82.69;101893.88;5171294;28;20031;-73
2022/07/08 06:57:31;;;;;;;10.70;1.73;;;;;;;16.74;83.36;101903.84;5172010;28;20021;-74
2022/07/08 07:00:04;;;;;;;11.55;1.70;;;;;;;16.71;82.34;101893.41;5171795;28;20034;-75
2022/07/08 07:02:34;;;;;;;10.35;1.67;;;;;;;16.65;82.53;101896.31;5170700;28;20028;-74
2022/07/08 07:05:06;;;;;;;8.27;1.58;;;;;;;16.71;83.39;101893.41;5172601;28;20038;-74
2022/07/08 07:07:36;;;;;;;6.53;1.13;;;;;;;17.05;81.78;101896.41;5171345;28;20033;-74
2022/07/08 07:10:07;;;;;;;7.63;1.70;;;;;;;16.90;79.92;101892.63;5170036;28;20384;-75
2022/07/08 07:12:37;;;;;;;8.40;1.95;;;;;;;16.94;80.32;101888.94;5166442;28;20022;-74
2022/07/08 07:15:08;;;;;;;11.13;1.65;;;;;;;17.17;78.69;101888.00;5168696;28;20890;-74
2022/07/08 07:17:42;;;;;;;9.55;1.60;;;;;;;17.24;77.82;101895.59;5169542;28;20302;-74
2022/07/08 07:20:12;;;;;;;11.05;1.65;;;;;;;17.32;77.79;101890.84;5173497;28;20034;-74
2022/07/08 07:22:43;;;;;;;8.25;1.65;;;;;;;17.10;77.17;101897.06;5170014;28;20462;-74
2022/07/08 07:25:13;;;;;;;11.27;1.80;;;;;;;17.14;76.52;101899.53;5171709;28;20021;-74
2022/07/08 07:27:43;;;;;;;6.18;1.30;;;;;;;16.80;77.22;101899.19;5169413;28;20162;-74
2022/07/08 07:30:14;;;;;;;6.82;1.30;;;;;;;17.20;77.96;101901.06;5173202;28;20489;-74
2022/07/08 07:32:44;;;;;;;11.27;2.03;;;;;;;17.30;77.34;101905.06;5169786;28;20042;-74
2022/07/08 07:35:15;;;;;;;10.45;1.58;;;;;;;17.42;78.93;101904.56;5171282;28;20018;-74
2022/07/08 07:37:45;;;;;;;12.85;2.22;;;;;;;17.78;76.92;101913.53;5169279;28;20030;-74
2022/07/08 07:40:15;;;;;;;7.50;1.73;;;;;;;17.69;76.56;101908.69;5169358;28;20397;-74
2022/07/08 07:42:46;;;;;;;8.90;1.90;;;;;;;18.02;75.87;101921.25;5163855;28;20026;-74
2022/07/08 07:45:16;;;;;;;9.02;1.83;;;;;;;18.22;74.56;101899.19;5168830;28;20030;-74
2022/07/08 07:47:46;;;;;;;8.98;1.55;;;;;;;18.38;71.90;101908.19;5168782;28;20030;-74
2022/07/08 07:50:17;;;;;;;10.85;2.13;;;;;;;18.79;73.57;101898.19;5172925;28;20026;-74
2022/07/08 07:52:47;;;;;;;7.07;1.80;;;;;;;18.88;72.31;101900.41;5169547;28;20189;-74
2022/07/08 07:55:18;;;;;;;8.80;1.45;;;;;;;18.54;74.08;101901.25;5173139;28;20029;-74
2022/07/08 07:57:48;;;;;;;13.55;2.08;;;;;;;18.39;74.50;101905.47;5168412;28;20033;-75
2022/07/08 08:00:19;;;;;;;12.27;1.83;;;;;;;18.09;76.01;101913.91;5164920;28;20026;-74
2022/07/08 08:02:49;;;;;;;8.35;1.55;;;;;;;17.82;78.22;101917.81;5173271;28;20640;-75
2022/07/08 08:05:20;;;;;;;9.98;1.60;;;;;;;17.78;77.23;101929.41;5167924;28;20034;-74
2022/07/08 08:07:50;;;;;;;12.77;1.67;;;;;;;17.97;77.09;101927.72;5172287;28;20116;-74
2022/07/08 08:10:20;;;;;;;7.72;1.30;;;;;;;19.52;70.83;101911.34;5168337;28;20156;-74
2022/07/08 08:12:51;;;;;;;9.32;1.58;;;;;;;20.13;68.88;101924.03;5166514;28;20042;-74
2022/07/08 08:15:22;;;;;;;7.43;1.85;;;;;;;19.42;69.17;101931.34;5172233;28;20026;-75
2022/07/08 08:17:52;;;;;;;6.10;1.55;;;;;;;18.89;70.78;101918.03;5168957;28;20481;-74
2022/07/08 08:20:25;;;;;;;9.57;1.40;;;;;;;19.45;69.22;101923.22;5171529;28;20036;-74
2022/07/08 08:22:55;;;;;;;6.75;1.25;;;;;;;20.25;66.67;101920.72;5169095;28;20030;-74
2022/07/08 08:25:26;;;;;;;8.50;1.48;;;;;;;20.69;66.84;101919.16;5171365;28;20471;-74
2022/07/08 08:27:57;;;;;;;5.65;1.25;;;;;;;20.87;66.86;101924.31;5168228;28;20034;-75
2022/07/08 08:30:28;;;;;;;8.82;1.33;;;;;;;20.65;66.18;101919.41;5171071;28;20025;-74
2022/07/08 08:32:58;;;;;;;8.02;1.70;;;;;;;22.25;63.58;101907.97;5169542;28;20093;-75
2022/07/08 08:35:28;;;;;;;7.05;1.58;;;;;;;22.25;62.56;101904.47;5170053;28;20030;-75
2022/07/08 08:37:59;;;;;;;6.93;1.20;;;;;;;21.38;64.16;101913.31;5170900;28;20033;-74
2022/07/08 08:40:30;;;;;;;5.28;1.63;;;;;;;20.93;65.61;101910.66;5168498;28;20788;-74
2022/07/08 08:43:00;;;;;;;6.60;1.10;;;;;;;21.91;64.81;101912.81;5168743;28;20022;-74
2022/07/08 08:45:32;;;;;;;4.97;1.20;;;;;;;23.40;60.95;101891.50;5169767;28;20167;-74
2022/07/08 08:48:06;;;;;;;6.75;1.58;;;;;;;24.40;58.15;101888.88;5169798;28;20033;-75
2022/07/08 08:50:56;;;;;;;8.48;1.40;;;;;;;24.73;57.96;101896.19;5169662;28;20041;-75
2022/07/08 08:53:29;;;;;;;6.60;1.25;;;;;;;24.02;58.14;101890.75;5166060;28;20026;-75
2022/07/08 08:56:00;;;;;;;5.97;1.30;;;;;;;24.09;57.71;101890.19;5170955;28;20424;-75
2022/07/08 08:58:30;;;;;;;7.07;1.50;;;;;;;24.56;57.85;101900.19;5166337;28;20065;-75
2022/07/08 09:01:01;;;;;;;5.20;1.30;;;;;;;23.78;58.98;101901.28;5166833;28;20065;-75
2022/07/08 09:03:31;;;;;;;7.50;1.25;;;;;;;23.30;59.67;101911.75;5170904;28;20277;-75
2022/07/08 09:06:03;;;;;;;7.95;1.77;;;;;;;24.09;57.72;101882.19;5170541;28;20065;-74
2022/07/08 09:08:33;;;;;;;6.78;1.27;;;;;;;24.80;57.15;101896.59;5169296;28;20483;-74
2022/07/08 09:11:05;;;;;;;5.80;1.27;;;;;;;25.00;57.26;101886.09;5168695;28;20132;-75
2022/07/08 09:13:35;;;;;;;6.32;1.42;;;;;;;25.67;55.48;101881.88;5168076;28;20479;-75
2022/07/08 09:16:06;;;;;;;5.70;1.10;;;;;;;24.93;55.35;101889.34;5170153;28;20117;-74
2022/07/08 09:18:38;;;;;;;5.18;1.00;;;;;;;25.23;55.38;101889.75;5168418;28;20110;-75
2022/07/08 09:21:10;;;;;;;6.35;1.20;;;;;;;25.66;54.51;101888.22;5169498;28;20466;-75
2022/07/08 09:23:40;;;;;;;7.45;1.50;;;;;;;25.57;54.43;101883.53;5170873;28;20169;-74
2022/07/08 09:26:11;;;;;;;8.02;1.40;;;;;;;24.51;57.37;101895.13;5168192;28;20557;-72
2022/07/08 09:28:43;;;;;;;4.10;1.17;;;;;;;24.55;56.73;101891.31;5164710;28;20037;-73
2022/07/08 09:31:15;;;;;;;5.10;1.10;;;;;;;23.52;57.98;101893.34;5161700;28;20026;-75
2022/07/08 09:33:45;;;;;;;8.57;1.33;;;;;;;23.23;59.70;101895.28;5162804;28;20483;-74
2022/07/08 09:36:15;;;;;;;6.10;1.40;;;;;;;23.26;60.63;101899.56;5168677;28;20038;-74
2022/07/08 09:38:46;;;;;;;7.53;1.45;;;;;;;22.92;60.37;101900.94;5167172;28;20117;-74
2022/07/08 09:41:17;;;;;;;7.22;1.17;;;;;;;23.28;61.36;101894.97;5168463;28;20029;-73
2022/07/08 09:43:50;;;;;;;9.40;1.48;;;;;;;22.87;60.91;101904.84;5171417;28;20030;-74
2022/07/08 09:46:21;;;;;;;6.65;1.40;;;;;;;22.29;62.41;101909.47;5163891;28;20023;-73
2022/07/08 09:48:51;;;;;;;6.68;1.27;;;;;;;22.69;62.73;101901.56;5170911;28;20041;-73
2022/07/08 09:51:21;;;;;;;7.97;1.70;;;;;;;22.55;61.88;101891.88;5167562;28;20077;-74
2022/07/08 09:54:08;;;;;;;7.22;1.45;;;;;;;23.52;59.81;101880.84;5170806;28;20033;-73
2022/07/08 09:56:39;;;;;;;11.45;1.67;;;;;;;23.28;60.58;101874.50;5169563;28;20381;-74
2022/07/08 09:59:09;;;;;;;7.20;1.40;;;;;;;23.25;60.36;101887.19;5165979;28;20036;-72
2022/07/08 10:01:40;;;;;;;6.32;0.98;;;;;;;23.66;58.47;101880.75;5168549;28;20122;-74
2022/07/08 10:04:10;;;;;;;6.35;1.42;;;;;;;24.09;58.78;101876.84;5173525;28;20029;-74
2022/07/08 10:06:40;;;;;;;6.63;1.20;;;;;;;24.07;58.13;101876.06;5171889;28;20089;-73
2022/07/08 10:09:11;;;;;;;4.67;1.17;;;;;;;24.25;59.22;101880.09;5173293;28;20037;-73
2022/07/08 10:11:43;;;;;;;5.78;1.35;;;;;;;24.81;58.71;101877.72;5168363;28;20779;-74
2022/07/08 10:14:14;;;;;;;10.10;1.73;;;;;;;24.82;58.07;101882.13;5174569;28;20025;-74
2022/07/08 10:16:48;;;;;;;6.32;1.33;;;;;;;23.75;59.49;101885.47;5171121;28;20032;-74
2022/07/08 10:19:31;;;;;;;8.88;1.30;;;;;;;23.53;59.83;101876.38;5165664;28;20503;-73
2022/07/08 10:22:03;;;;;;;7.88;1.27;;;;;;;23.62;60.12;101871.25;5173254;28;20198;-73
2022/07/08 10:24:39;;;;;;;5.15;1.17;;;;;;;23.22;60.83;101869.56;5173114;28;20481;-73
2022/07/08 10:27:10;;;;;;;5.97;1.30;;;;;;;23.82;60.39;101867.19;5171785;28;20105;-74
2022/07/08 10:29:41;;;;;;;6.18;1.50;;;;;;;23.41;61.11;101863.84;5169832;28;20568;-73
2022/07/08 10:32:27;;;;;;;5.43;1.20;;;;;;;23.09;62.72;101879.34;5171410;28;20109;-74
2022/07/08 10:35:11;;;;;;;6.45;1.40;;;;;;;23.49;63.14;101875.72;5169606;28;20031;-74
2022/07/08 10:38:00;;;;;;;9.85;1.92;;;;;;;22.78;62.69;101886.78;5171030;28;20112;-73
2022/07/08 10:40:50;;;;;;;5.63;1.13;;;;;;;22.73;63.84;101882.72;5168348;28;20034;-74
2022/07/08 10:43:27;;;;;;;9.05;1.60;;;;;;;22.20;65.11;101890.53;5168019;28;20049;-74
2022/07/08 10:46:01;;;;;;;8.18;1.40;;;;;;;22.23;65.66;101882.38;5173308;28;20049;-74
2022/07/08 10:48:40;;;;;;;8.85;1.75;;;;;;;22.04;65.53;101879.13;5171506;28;20030;-73
2022/07/08 10:51:19;;;;;;;7.20;1.50;;;;;;;21.91;66.79;101871.06;5171180;28;20514;-72
2022/07/08 10:53:53;;;;;;;10.13;1.65;;;;;;;21.80;67.31;101870.88;5166244;28;20559;-72
2022/07/08 10:56:53;;;;;;;7.38;1.33;;;;;;;21.71;68.89;101884.75;5173629;28;20037;-73
2022/07/08 10:59:31;;;;;;;5.60;1.30;;;;;;;21.71;67.35;101882.06;5165703;28;20033;-74
2022/07/08 11:02:09;;;;;;;8.30;1.33;;;;;;;21.46;67.39;101888.94;5172280;28;20037;-72
2022/07/08 11:04:40;;;;;;;5.18;1.13;;;;;;;21.47;68.43;101883.53;5171808;28;20034;-73
2022/07/08 11:07:37;;;;;;;5.18;1.20;;;;;;;21.65;67.80;101884.25;5170615;28;20387;-74
2022/07/08 11:10:08;;;;;;;7.20;1.35;;;;;;;21.27;68.53;101885.66;5165449;28;20077;-74
2022/07/08 11:12:40;;;;;;;8.43;1.23;;;;;;;21.19;69.22;101883.44;5171397;28;20030;-73
2022/07/08 11:15:11;;;;;;;8.23;1.33;;;;;;;21.34;69.04;101885.19;5169510;28;20034;-73
2022/07/08 11:17:41;;;;;;;12.20;1.70;;;;;;;21.78;68.87;101879.91;5171439;28;20495;-73
2022/07/08 11:20:14;;;;;;;5.90;1.33;;;;;;;21.87;67.73;101879.31;5170488;28;20034;-74
2022/07/08 11:22:45;;;;;;;6.45;1.23;;;;;;;21.88;68.44;101878.41;5172867;28;20033;-73
2022/07/08 11:25:16;;;;;;;10.13;1.63;;;;;;;21.92;68.19;101882.59;5169753;28;20085;-73
2022/07/08 11:27:47;;;;;;;11.32;1.30;;;;;;;22.12;68.05;101883.03;5169521;28;20037;-73
2022/07/08 11:30:17;;;;;;;10.13;1.80;;;;;;;22.32;67.13;101881.78;5168892;28;20030;-72
2022/07/08 11:32:49;;;;;;;8.40;1.70;;;;;;;22.22;67.77;101886.00;5168095;28;20041;-73
2022/07/08 11:35:23;;;;;;;6.88;1.85;;;;;;;22.37;67.98;101883.22;5161087;28;20030;-73
2022/07/08 11:37:54;;;;;;;6.70;1.25;;;;;;;21.88;68.42;101881.91;5164207;28;20034;-74
2022/07/08 11:40:24;;;;;;;8.48;1.65;;;;;;;22.07;68.56;101886.97;5163493;28;20572;-73